createdAt,value
2018-08-06T00:02:09.698Z,1.40
2018-08-06T00:07:13.056Z,1.50
2018-08-06T00:12:16.126Z,1.53
2018-08-06T00:17:19.167Z,1.67
2018-08-06T00:22:22.222Z,1.20
2018-08-06T00:27:25.246Z,1.20
2018-08-06T00:32:28.455Z,1.57
2018-08-06T00:37:31.471Z,1.47
2018-08-06T00:42:34.506Z,1.27
2018-08-06T00:47:37.671Z,1.33
2018-08-06T00:52:40.704Z,1.10
2018-08-06T00:57:43.966Z,1.40
2018-08-06T01:02:47.014Z,1.37
2018-08-06T01:07:50.114Z,1.40
2018-08-06T01:12:53.134Z,1.40
2018-08-06T01:17:56.184Z,1.17
2018-08-06T01:22:59.249Z,1.30
2018-08-06T01:28:02.298Z,1.17
2018-08-06T01:33:05.377Z,1.10
2018-08-06T01:38:08.443Z,1.23
2018-08-06T01:43:11.282Z,1.10
2018-08-06T01:48:14.389Z,1.67
2018-08-06T01:53:17.462Z,1.40
2018-08-06T01:58:20.455Z,1.13
2018-08-06T02:03:23.498Z,1.30
2018-08-06T02:08:26.532Z,1.80
2018-08-06T02:13:29.622Z,1.20
2018-08-06T02:18:32.654Z,1.33
2018-08-06T02:23:35.752Z,1.53
2018-08-06T02:28:38.803Z,1.40
2018-08-06T02:33:41.832Z,1.77
2018-08-06T02:38:44.890Z,1.53
2018-08-06T02:43:48.098Z,1.37
2018-08-06T02:48:51.111Z,1.13
2018-08-06T02:53:54.206Z,1.40
2018-08-06T02:58:57.411Z,1.10
2018-08-06T03:04:00.431Z,1.20
2018-08-06T03:09:04.517Z,1.30
2018-08-06T03:14:07.559Z,1.40
2018-08-06T03:19:10.595Z,1.40
2018-08-06T03:24:13.711Z,1.33
2018-08-06T03:29:16.754Z,1.20
2018-08-06T03:34:19.783Z,1.50
2018-08-06T03:39:22.851Z,1.93
2018-08-06T03:44:25.875Z,1.50
2018-08-06T03:49:28.970Z,1.50
2018-08-06T03:54:32.074Z,1.70
2018-08-06T03:59:35.176Z,1.60
2018-08-06T04:04:38.258Z,2.10
2018-08-06T04:09:41.271Z,1.87
2018-08-06T04:14:44.271Z,2.10
2018-08-06T04:19:47.362Z,1.97
2018-08-06T04:24:50.656Z,2.20
2018-08-06T04:29:53.689Z,2.20
2018-08-06T04:34:57.215Z,2.10
2018-08-06T04:40:00.231Z,1.83
2018-08-06T04:45:03.399Z,1.80
2018-08-06T04:50:07.555Z,2.10
2018-08-06T04:55:13.202Z,2.30
2018-08-06T05:00:16.370Z,2.17
2018-08-06T05:05:19.456Z,2.23
2018-08-06T05:10:22.517Z,2.30
2018-08-06T05:15:25.578Z,1.80
2018-08-06T05:20:28.635Z,2.40
2018-08-06T05:25:31.660Z,2.50
2018-08-06T05:30:34.746Z,2.30
2018-08-06T05:35:37.775Z,2.10
2018-08-06T05:40:40.831Z,3.30
2018-08-06T05:45:43.881Z,1.77
2018-08-06T05:50:46.955Z,2.40
2018-08-06T05:55:50.035Z,2.03
2018-08-06T06:00:53.094Z,2.00
2018-08-06T06:05:56.160Z,2.10
2018-08-06T06:10:59.230Z,1.70
2018-08-06T06:16:02.382Z,1.80
2018-08-06T06:21:05.498Z,2.10
2018-08-06T06:26:08.542Z,2.30
2018-08-06T06:31:11.697Z,2.10
2018-08-06T06:36:14.724Z,2.23
2018-08-06T06:41:17.795Z,2.60
2018-08-06T06:46:20.830Z,2.00
2018-08-06T06:51:23.845Z,1.53
2018-08-06T06:56:26.907Z,2.30
2018-08-06T07:01:30.195Z,1.73
2018-08-06T07:06:33.275Z,1.77
2018-08-06T07:11:36.448Z,2.00
2018-08-06T07:16:39.538Z,1.90
2018-08-06T07:21:42.618Z,1.77
2018-08-06T07:26:45.681Z,2.03
2018-08-06T07:31:48.702Z,1.77
2018-08-06T07:36:51.786Z,2.13
2018-08-06T07:41:54.870Z,1.40
2018-08-06T07:46:57.755Z,1.63
2018-08-06T07:52:00.825Z,1.33
2018-08-06T07:57:10.686Z,1.70
2018-08-06T08:02:13.739Z,1.30
2018-08-06T08:07:16.808Z,1.80
2018-08-06T08:12:19.887Z,1.70
2018-08-06T08:17:22.983Z,2.13
2018-08-06T08:22:26.049Z,1.97
2018-08-06T08:27:29.127Z,1.70
2018-08-06T08:32:32.191Z,1.80
2018-08-06T08:37:35.653Z,1.50
2018-08-06T08:42:38.769Z,2.10
2018-08-06T08:47:42.790Z,1.40
2018-08-06T08:52:45.942Z,1.50
2018-08-06T08:57:48.954Z,1.63
2018-08-06T09:02:52.682Z,2.10
2018-08-06T09:07:55.787Z,1.80
2018-08-06T09:12:58.829Z,1.67
2018-08-06T09:18:01.882Z,2.00
2018-08-06T09:23:04.986Z,1.50
2018-08-06T09:28:07.990Z,2.20
2018-08-06T09:33:11.059Z,1.70
2018-08-06T09:38:14.115Z,2.10
2018-08-06T09:43:17.175Z,1.77
2018-08-06T09:48:20.185Z,1.70
2018-08-06T09:53:23.258Z,1.50
2018-08-06T09:58:26.311Z,1.47
2018-08-06T10:03:29.343Z,1.60
2018-08-06T10:08:32.338Z,1.60
2018-08-06T10:13:35.374Z,1.23
2018-08-06T10:18:38.352Z,1.23
2018-08-06T10:23:41.415Z,1.43
2018-08-06T10:28:44.460Z,1.47
2018-08-06T10:33:47.569Z,1.80
2018-08-06T10:38:50.633Z,1.80
2018-08-06T10:43:53.654Z,1.60
2018-08-06T10:48:56.665Z,1.50
2018-08-06T10:53:59.793Z,1.20
2018-08-06T10:59:02.879Z,1.40
2018-08-06T11:04:06.273Z,1.60
2018-08-06T11:09:09.298Z,1.50
2018-08-06T11:14:12.413Z,1.20
2018-08-06T11:19:15.382Z,1.70
2018-08-06T11:24:18.431Z,1.27
2018-08-06T11:29:21.506Z,1.63
2018-08-06T11:34:24.647Z,1.27
2018-08-06T11:39:27.705Z,1.50
2018-08-06T11:44:30.858Z,1.67
2018-08-06T11:49:40.581Z,1.37
2018-08-06T11:54:43.689Z,1.40
2018-08-06T11:59:46.760Z,1.27
2018-08-06T12:04:49.991Z,1.60
2018-08-06T12:09:53.065Z,1.03
2018-08-06T12:14:56.273Z,1.40
2018-08-06T12:19:59.296Z,1.40
2018-08-06T12:25:02.400Z,1.50
2018-08-06T12:30:08.588Z,1.20
2018-08-06T12:35:11.634Z,1.30
2018-08-06T12:40:16.640Z,1.37
2018-08-06T12:45:19.670Z,1.00
2018-08-06T12:50:22.659Z,1.20
2018-08-06T12:55:25.738Z,4.43
2018-08-06T13:00:28.758Z,1.40
2018-08-06T13:05:31.770Z,1.80
2018-08-06T13:10:34.817Z,1.60
2018-08-06T13:15:37.835Z,1.30
2018-08-06T13:20:40.867Z,1.30
2018-08-06T13:25:43.942Z,1.20
2018-08-06T13:30:47.404Z,1.20
2018-08-06T13:35:50.807Z,1.17
2018-08-06T13:40:53.807Z,1.47
2018-08-06T13:45:56.822Z,1.67
2018-08-06T13:50:59.887Z,1.40
2018-08-06T13:56:02.970Z,1.37
2018-08-06T14:01:06.019Z,1.30
2018-08-06T14:06:09.021Z,1.50
2018-08-06T14:11:12.160Z,1.67
2018-08-06T14:16:15.225Z,1.60
2018-08-06T14:21:18.322Z,1.80
2018-08-06T14:26:21.380Z,1.50
2018-08-06T14:31:24.486Z,1.40
2018-08-06T14:36:27.460Z,1.30
2018-08-06T14:41:30.476Z,1.60
2018-08-06T14:46:33.762Z,1.90
2018-08-06T14:51:38.845Z,1.53
2018-08-06T14:56:41.972Z,1.37
2018-08-06T15:01:45.037Z,1.43
2018-08-06T15:06:48.042Z,1.50
2018-08-06T15:11:51.125Z,1.40
2018-08-06T15:16:54.255Z,1.60
2018-08-06T15:21:57.360Z,1.27
2018-08-06T15:27:00.433Z,1.30
2018-08-06T15:32:03.544Z,1.40
2018-08-06T15:37:06.513Z,1.70
2018-08-06T15:42:09.674Z,1.40
2018-08-06T15:47:12.698Z,1.60
2018-08-06T15:52:15.746Z,1.70
2018-08-06T15:57:18.751Z,1.23
2018-08-06T16:02:21.770Z,1.40
2018-08-06T16:07:24.787Z,1.33
2018-08-06T16:12:27.839Z,1.83
2018-08-06T16:17:30.897Z,1.17
2018-08-06T16:22:33.754Z,1.57
2018-08-06T16:27:36.822Z,1.20
2018-08-06T16:32:39.991Z,1.20
2018-08-06T16:37:43.018Z,1.60
2018-08-06T16:42:46.008Z,1.40
2018-08-06T16:47:49.459Z,1.40
2018-08-06T16:52:52.622Z,1.20
2018-08-06T16:57:55.607Z,1.47
2018-08-06T17:02:58.739Z,1.40
2018-08-06T17:08:01.830Z,1.70
2018-08-06T17:13:04.846Z,1.37
2018-08-06T17:18:07.895Z,1.57
2018-08-06T17:23:10.947Z,1.43
2018-08-06T17:28:14.022Z,1.80
2018-08-06T17:33:17.645Z,1.50
2018-08-06T17:38:20.657Z,1.80
2018-08-06T17:43:23.706Z,1.40
2018-08-06T17:48:26.747Z,2.33
2018-08-06T17:53:29.804Z,1.80
2018-08-06T17:58:32.854Z,1.50
2018-08-06T18:03:35.900Z,1.37
2018-08-06T18:08:38.933Z,1.60
2018-08-06T18:13:41.987Z,1.90
2018-08-06T18:18:45.043Z,2.50
2018-08-06T18:23:48.171Z,3.17
2018-08-06T18:28:51.204Z,4.10
2018-08-06T18:33:54.299Z,15.60
2018-08-06T18:38:57.495Z,15.50
2018-08-06T18:44:00.629Z,15.90
2018-08-06T18:49:04.003Z,9.30
2018-08-06T18:54:07.079Z,3.50
2018-08-06T18:59:10.130Z,3.73
2018-08-06T19:04:13.204Z,8.73
2018-08-06T19:09:18.153Z,4.20
2018-08-06T19:14:22.796Z,3.40
2018-08-06T19:19:27.342Z,4.50
2018-08-06T19:24:36.046Z,3.43
2018-08-06T19:29:39.019Z,2.77
2018-08-06T19:34:42.230Z,3.70
2018-08-06T19:39:45.235Z,3.40
2018-08-06T19:44:48.740Z,3.37
2018-08-06T19:49:57.331Z,3.03
2018-08-06T19:55:05.838Z,3.50
2018-08-06T20:00:09.793Z,3.13
2018-08-06T20:05:12.807Z,3.23
2018-08-06T20:10:16.104Z,3.33
2018-08-06T20:15:20.068Z,3.20
2018-08-06T20:20:23.115Z,2.73
2018-08-06T20:25:26.160Z,2.70
2018-08-06T20:30:29.209Z,2.87
2018-08-06T20:35:32.301Z,2.87
2018-08-06T20:40:35.302Z,2.90
2018-08-06T20:45:38.324Z,3.17
2018-08-06T20:50:41.872Z,3.90
2018-08-06T20:55:44.902Z,2.80
2018-08-06T21:00:47.934Z,2.90
2018-08-06T21:05:50.992Z,3.60
2018-08-06T21:10:54.103Z,3.10
2018-08-06T21:15:57.277Z,2.90
2018-08-06T21:21:00.277Z,3.23
2018-08-06T21:26:03.330Z,3.03
2018-08-06T21:31:06.400Z,3.37
2018-08-06T21:36:09.406Z,2.80
2018-08-06T21:41:12.447Z,3.20
2018-08-06T21:46:15.477Z,2.80
2018-08-06T21:51:18.602Z,2.87
2018-08-06T21:56:21.622Z,2.80
2018-08-06T22:01:24.634Z,1.90
2018-08-06T22:06:27.662Z,2.50
2018-08-06T22:11:30.715Z,2.47
2018-08-06T22:16:33.999Z,2.73
2018-08-06T22:21:37.134Z,2.50
2018-08-06T22:26:40.130Z,2.00
2018-08-06T22:31:43.146Z,2.43
2018-08-06T22:36:46.198Z,1.77
2018-08-06T22:41:49.341Z,2.30
2018-08-06T22:46:53.162Z,2.10
2018-08-06T22:51:56.234Z,2.23
2018-08-06T22:56:59.295Z,2.83
2018-08-06T23:02:02.342Z,2.37
2018-08-06T23:07:05.346Z,2.20
2018-08-06T23:12:08.510Z,2.57
2018-08-06T23:17:11.528Z,2.43
2018-08-06T23:22:14.547Z,2.40
2018-08-06T23:27:17.570Z,2.40
2018-08-06T23:32:20.615Z,2.13
2018-08-06T23:37:23.636Z,2.70
2018-08-06T23:42:26.686Z,2.87
2018-08-06T23:47:29.713Z,2.63
2018-08-06T23:52:32.742Z,2.20
2018-08-06T23:57:35.585Z,1.90
